sensor_id;sensor_type;location;lat;lon;timestamp;temperature;humidity
59855;DHT22;45732;52.850;6.896;2023-09-18T00:00:49;17.70;99.90
59855;DHT22;45732;52.850;6.896;2023-09-18T00:03:18;17.70;99.90
59855;DHT22;45732;52.850;6.896;2023-09-18T00:05:49;17.60;99.90
59855;DHT22;45732;52.850;6.896;2023-09-18T00:08:15;17.50;99.90
59855;DHT22;45732;52.850;6.896;2023-09-18T00:10:42;17.40;99.90
59855;DHT22;45732;52.850;6.896;2023-09-18T00:13:08;17.40;99.90
59855;DHT22;45732;52.850;6.896;2023-09-18T00:15:34;17.40;99.90
59855;DHT22;45732;52.850;6.896;2023-09-18T00:18:00;17.40;99.90
59855;DHT22;45732;52.850;6.896;2023-09-18T00:20:26;17.30;99.90
59855;DHT22;45732;52.850;6.896;2023-09-18T00:22:56;17.30;99.90
59855;DHT22;45732;52.850;6.896;2023-09-18T00:25:22;17.30;99.90
59855;DHT22;45732;52.850;6.896;2023-09-18T00:27:48;17.30;99.90
59855;DHT22;45732;52.850;6.896;2023-09-18T00:30:14;17.20;99.90
59855;DHT22;45732;52.850;6.896;2023-09-18T00:32:40;17.20;99.90
59855;DHT22;45732;52.850;6.896;2023-09-18T00:35:06;17.20;99.90
59855;DHT22;45732;52.850;6.896;2023-09-18T00:37:31;17.20;99.90
59855;DHT22;45732;52.850;6.896;2023-09-18T00:39:57;17.10;99.90
59855;DHT22;45732;52.850;6.896;2023-09-18T00:42:24;17.10;99.90
59855;DHT22;45732;52.850;6.896;2023-09-18T00:44:50;17.20;99.90
59855;DHT22;45732;52.850;6.896;2023-09-18T00:47:16;17.20;99.90
59855;DHT22;45732;52.850;6.896;2023-09-18T00:49:46;17.20;99.90
59855;DHT22;45732;52.850;6.896;2023-09-18T00:52:13;17.20;99.90
59855;DHT22;45732;52.850;6.896;2023-09-18T00:54:40;17.10;99.90
59855;DHT22;45732;52.850;6.896;2023-09-18T00:57:08;17.10;99.90
59855;DHT22;45732;52.850;6.896;2023-09-18T00:59:34;17.10;99.90
59855;DHT22;45732;52.850;6.896;2023-09-18T01:02:00;17.20;99.90
59855;DHT22;45732;52.850;6.896;2023-09-18T01:04:26;17.20;99.90
59855;DHT22;45732;52.850;6.896;2023-09-18T01:06:54;17.20;99.90
59855;DHT22;45732;52.850;6.896;2023-09-18T01:09:22;17.20;99.90
59855;DHT22;45732;52.850;6.896;2023-09-18T01:12:17;17.20;99.90
59855;DHT22;45732;52.850;6.896;2023-09-18T01:14:57;17.10;99.90
59855;DHT22;45732;52.850;6.896;2023-09-18T01:17:24;17.20;99.90
59855;DHT22;45732;52.850;6.896;2023-09-18T01:19:51;17.20;99.90
59855;DHT22;45732;52.850;6.896;2023-09-18T01:22:18;17.20;99.90
59855;DHT22;45732;52.850;6.896;2023-09-18T01:24:46;17.30;99.90
59855;DHT22;45732;52.850;6.896;2023-09-18T01:27:18;17.30;99.90
59855;DHT22;45732;52.850;6.896;2023-09-18T01:29:45;17.30;99.90
59855;DHT22;45732;52.850;6.896;2023-09-18T01:32:11;17.40;99.90
59855;DHT22;45732;52.850;6.896;2023-09-18T01:34:41;17.40;99.90
59855;DHT22;45732;52.850;6.896;2023-09-18T01:37:09;17.40;99.90
59855;DHT22;45732;52.850;6.896;2023-09-18T01:39:35;17.40;99.90
59855;DHT22;45732;52.850;6.896;2023-09-18T01:42:05;17.40;99.90
59855;DHT22;45732;52.850;6.896;2023-09-18T01:44:33;17.50;99.90
59855;DHT22;45732;52.850;6.896;2023-09-18T01:47:00;17.50;99.90
59855;DHT22;45732;52.850;6.896;2023-09-18T01:49:33;17.50;99.90
59855;DHT22;45732;52.850;6.896;2023-09-18T01:51:59;17.40;99.90
59855;DHT22;45732;52.850;6.896;2023-09-18T01:54:25;17.50;99.90
59855;DHT22;45732;52.850;6.896;2023-09-18T01:56:52;17.40;99.90
59855;DHT22;45732;52.850;6.896;2023-09-18T01:59:19;17.50;99.90
59855;DHT22;45732;52.850;6.896;2023-09-18T02:01:45;17.50;99.90
59855;DHT22;45732;52.850;6.896;2023-09-18T02:04:11;17.50;99.90
59855;DHT22;45732;52.850;6.896;2023-09-18T02:06:37;17.40;99.90
59855;DHT22;45732;52.850;6.896;2023-09-18T02:09:02;17.40;99.90
59855;DHT22;45732;52.850;6.896;2023-09-18T02:11:36;17.50;99.90
59855;DHT22;45732;52.850;6.896;2023-09-18T02:14:03;17.40;99.90
59855;DHT22;45732;52.850;6.896;2023-09-18T02:16:29;17.40;99.90
59855;DHT22;45732;52.850;6.896;2023-09-18T02:18:55;17.40;99.90
59855;DHT22;45732;52.850;6.896;2023-09-18T02:21:22;17.40;99.90
59855;DHT22;45732;52.850;6.896;2023-09-18T02:23:50;17.40;99.90
59855;DHT22;45732;52.850;6.896;2023-09-18T02:26:17;17.40;99.90
59855;DHT22;45732;52.850;6.896;2023-09-18T02:28:43;17.40;99.90
59855;DHT22;45732;52.850;6.896;2023-09-18T02:31:09;17.40;99.90
59855;DHT22;45732;52.850;6.896;2023-09-18T02:33:35;17.40;99.90
59855;DHT22;45732;52.850;6.896;2023-09-18T02:36:00;17.40;99.90
59855;DHT22;45732;52.850;6.896;2023-09-18T02:38:27;17.40;99.90
59855;DHT22;45732;52.850;6.896;2023-09-18T02:40:53;17.40;99.90
59855;DHT22;45732;52.850;6.896;2023-09-18T02:43:20;17.40;99.90
59855;DHT22;45732;52.850;6.896;2023-09-18T02:45:46;17.40;99.90
59855;DHT22;45732;52.850;6.896;2023-09-18T02:48:12;17.40;99.90
59855;DHT22;45732;52.850;6.896;2023-09-18T02:50:37;17.40;99.90
59855;DHT22;45732;52.850;6.896;2023-09-18T02:53:06;17.40;99.90
59855;DHT22;45732;52.850;6.896;2023-09-18T02:55:32;17.50;99.90
59855;DHT22;45732;52.850;6.896;2023-09-18T02:57:58;17.40;99.90
59855;DHT22;45732;52.850;6.896;2023-09-18T03:00:24;17.40;99.90
59855;DHT22;45732;52.850;6.896;2023-09-18T03:02:50;17.50;99.90
59855;DHT22;45732;52.850;6.896;2023-09-18T03:05:15;17.50;99.90
59855;DHT22;45732;52.850;6.896;2023-09-18T03:07:41;17.50;99.90
59855;DHT22;45732;52.850;6.896;2023-09-18T03:10:07;17.50;99.90
59855;DHT22;45732;52.850;6.896;2023-09-18T03:12:33;17.50;99.90
59855;DHT22;45732;52.850;6.896;2023-09-18T03:14:59;17.50;99.90
59855;DHT22;45732;52.850;6.896;2023-09-18T03:17:25;17.50;99.90
59855;DHT22;45732;52.850;6.896;2023-09-18T03:19:50;17.40;99.90
59855;DHT22;45732;52.850;6.896;2023-09-18T03:22:16;17.50;99.90
59855;DHT22;45732;52.850;6.896;2023-09-18T03:24:42;17.50;99.90
59855;DHT22;45732;52.850;6.896;2023-09-18T03:27:07;17.50;99.90
59855;DHT22;45732;52.850;6.896;2023-09-18T03:29:33;17.50;99.90
59855;DHT22;45732;52.850;6.896;2023-09-18T03:31:59;17.50;99.90
59855;DHT22;45732;52.850;6.896;2023-09-18T03:34:25;17.50;99.90
59855;DHT22;45732;52.850;6.896;2023-09-18T03:36:52;17.60;99.90
59855;DHT22;45732;52.850;6.896;2023-09-18T03:39:18;17.60;99.90
59855;DHT22;45732;52.850;6.896;2023-09-18T03:41:44;17.50;99.90
59855;DHT22;45732;52.850;6.896;2023-09-18T03:44:10;17.50;99.90
59855;DHT22;45732;52.850;6.896;2023-09-18T03:46:36;17.40;99.90
59855;DHT22;45732;52.850;6.896;2023-09-18T03:49:02;17.50;99.90
59855;DHT22;45732;52.850;6.896;2023-09-18T03:51:29;17.50;99.90
59855;DHT22;45732;52.850;6.896;2023-09-18T03:53:55;17.50;99.90
59855;DHT22;45732;52.850;6.896;2023-09-18T03:56:22;17.40;99.90
59855;DHT22;45732;52.850;6.896;2023-09-18T03:58:48;17.50;99.90
59855;DHT22;45732;52.850;6.896;2023-09-18T04:01:18;17.50;99.90
59855;DHT22;45732;52.850;6.896;2023-09-18T04:03:43;17.50;99.90
59855;DHT22;45732;52.850;6.896;2023-09-18T04:06:09;17.60;99.90
59855;DHT22;45732;52.850;6.896;2023-09-18T04:08:35;17.50;99.90
59855;DHT22;45732;52.850;6.896;2023-09-18T04:11:00;17.60;99.90
59855;DHT22;45732;52.850;6.896;2023-09-18T04:13:27;17.60;99.90
59855;DHT22;45732;52.850;6.896;2023-09-18T04:15:53;17.50;99.90
59855;DHT22;45732;52.850;6.896;2023-09-18T04:18:23;17.60;99.90
59855;DHT22;45732;52.850;6.896;2023-09-18T04:20:48;17.60;99.90
59855;DHT22;45732;52.850;6.896;2023-09-18T04:23:26;17.60;99.90
59855;DHT22;45732;52.850;6.896;2023-09-18T04:25:53;17.60;99.90
59855;DHT22;45732;52.850;6.896;2023-09-18T04:28:20;17.60;99.90
59855;DHT22;45732;52.850;6.896;2023-09-18T04:30:47;17.60;99.90
59855;DHT22;45732;52.850;6.896;2023-09-18T04:33:14;17.60;99.90
59855;DHT22;45732;52.850;6.896;2023-09-18T04:35:39;17.60;99.90
59855;DHT22;45732;52.850;6.896;2023-09-18T04:38:07;17.60;99.90
59855;DHT22;45732;52.850;6.896;2023-09-18T04:40:34;17.60;99.90
59855;DHT22;45732;52.850;6.896;2023-09-18T04:43:00;17.60;99.90
59855;DHT22;45732;52.850;6.896;2023-09-18T04:45:27;17.60;99.90
59855;DHT22;45732;52.850;6.896;2023-09-18T04:47:53;17.70;99.90
59855;DHT22;45732;52.850;6.896;2023-09-18T04:50:19;17.70;99.90
59855;DHT22;45732;52.850;6.896;2023-09-18T04:52:45;17.70;99.90
59855;DHT22;45732;52.850;6.896;2023-09-18T04:55:11;17.70;99.90
59855;DHT22;45732;52.850;6.896;2023-09-18T04:57:37;17.70;99.90
59855;DHT22;45732;52.850;6.896;2023-09-18T05:00:03;17.70;99.90
59855;DHT22;45732;52.850;6.896;2023-09-18T05:02:38;17.70;99.90
59855;DHT22;45732;52.850;6.896;2023-09-18T05:05:05;17.80;99.90
59855;DHT22;45732;52.850;6.896;2023-09-18T05:07:31;17.80;99.90
59855;DHT22;45732;52.850;6.896;2023-09-18T05:09:58;17.80;99.90
59855;DHT22;45732;52.850;6.896;2023-09-18T05:12:23;17.80;99.90
59855;DHT22;45732;52.850;6.896;2023-09-18T05:14:49;17.80;99.90
59855;DHT22;45732;52.850;6.896;2023-09-18T05:17:17;17.80;99.90
59855;DHT22;45732;52.850;6.896;2023-09-18T05:19:44;17.90;99.90
59855;DHT22;45732;52.850;6.896;2023-09-18T05:22:10;17.90;99.90
59855;DHT22;45732;52.850;6.896;2023-09-18T05:24:37;17.90;99.90
59855;DHT22;45732;52.850;6.896;2023-09-18T05:27:03;17.90;99.90
59855;DHT22;45732;52.850;6.896;2023-09-18T05:29:29;17.90;99.90
59855;DHT22;45732;52.850;6.896;2023-09-18T05:31:54;18.00;99.90
59855;DHT22;45732;52.850;6.896;2023-09-18T05:34:20;17.90;99.90
59855;DHT22;45732;52.850;6.896;2023-09-18T05:36:46;18.00;99.90
59855;DHT22;45732;52.850;6.896;2023-09-18T05:39:11;18.00;99.90
59855;DHT22;45732;52.850;6.896;2023-09-18T05:41:41;18.00;99.90
59855;DHT22;45732;52.850;6.896;2023-09-18T05:44:07;18.00;99.90
59855;DHT22;45732;52.850;6.896;2023-09-18T05:46:36;18.00;99.90
59855;DHT22;45732;52.850;6.896;2023-09-18T05:49:02;18.00;99.90
59855;DHT22;45732;52.850;6.896;2023-09-18T05:51:29;18.00;99.90
59855;DHT22;45732;52.850;6.896;2023-09-18T05:53:55;18.00;99.90
59855;DHT22;45732;52.850;6.896;2023-09-18T05:56:20;18.00;99.90
59855;DHT22;45732;52.850;6.896;2023-09-18T05:58:46;18.10;99.90
59855;DHT22;45732;52.850;6.896;2023-09-18T06:01:12;18.10;99.90
59855;DHT22;45732;52.850;6.896;2023-09-18T06:03:37;18.10;99.90
59855;DHT22;45732;52.850;6.896;2023-09-18T06:06:04;18.10;99.90
59855;DHT22;45732;52.850;6.896;2023-09-18T06:08:30;18.20;99.90
59855;DHT22;45732;52.850;6.896;2023-09-18T06:10:57;18.20;99.90
59855;DHT22;45732;52.850;6.896;2023-09-18T06:13:24;18.20;99.90
59855;DHT22;45732;52.850;6.896;2023-09-18T06:15:51;18.30;99.90
59855;DHT22;45732;52.850;6.896;2023-09-18T06:18:18;18.30;99.90
59855;DHT22;45732;52.850;6.896;2023-09-18T06:20:46;18.30;99.90
59855;DHT22;45732;52.850;6.896;2023-09-18T06:23:12;18.30;99.90
59855;DHT22;45732;52.850;6.896;2023-09-18T06:25:39;18.30;99.90
59855;DHT22;45732;52.850;6.896;2023-09-18T06:28:05;18.40;99.90
59855;DHT22;45732;52.850;6.896;2023-09-18T06:30:32;18.40;99.90
59855;DHT22;45732;52.850;6.896;2023-09-18T06:32:59;18.40;99.90
59855;DHT22;45732;52.850;6.896;2023-09-18T06:35:25;18.50;99.90
59855;DHT22;45732;52.850;6.896;2023-09-18T06:37:51;18.50;99.90
59855;DHT22;45732;52.850;6.896;2023-09-18T06:40:17;18.50;99.90
59855;DHT22;45732;52.850;6.896;2023-09-18T06:42:43;18.50;99.90
59855;DHT22;45732;52.850;6.896;2023-09-18T06:45:09;18.50;99.90
59855;DHT22;45732;52.850;6.896;2023-09-18T06:47:35;18.50;99.90
59855;DHT22;45732;52.850;6.896;2023-09-18T06:50:01;18.50;99.90
59855;DHT22;45732;52.850;6.896;2023-09-18T06:52:28;18.50;99.90
59855;DHT22;45732;52.850;6.896;2023-09-18T06:54:54;18.50;99.90
59855;DHT22;45732;52.850;6.896;2023-09-18T06:57:20;18.50;99.90
59855;DHT22;45732;52.850;6.896;2023-09-18T06:59:47;18.60;99.90
59855;DHT22;45732;52.850;6.896;2023-09-18T07:02:12;18.60;99.90
59855;DHT22;45732;52.850;6.896;2023-09-18T07:04:42;18.50;99.90
59855;DHT22;45732;52.850;6.896;2023-09-18T07:07:14;18.60;99.90
59855;DHT22;45732;52.850;6.896;2023-09-18T07:09:41;18.70;99.90
59855;DHT22;45732;52.850;6.896;2023-09-18T07:12:10;18.70;99.90
59855;DHT22;45732;52.850;6.896;2023-09-18T07:14:36;18.70;99.90
59855;DHT22;45732;52.850;6.896;2023-09-18T07:17:04;18.70;99.90
59855;DHT22;45732;52.850;6.896;2023-09-18T07:19:29;18.80;99.90
59855;DHT22;45732;52.850;6.896;2023-09-18T07:21:55;18.70;99.90
59855;DHT22;45732;52.850;6.896;2023-09-18T07:24:21;18.80;99.90
59855;DHT22;45732;52.850;6.896;2023-09-18T07:26:47;18.70;99.90
59855;DHT22;45732;52.850;6.896;2023-09-18T07:29:14;18.70;99.90
59855;DHT22;45732;52.850;6.896;2023-09-18T07:31:41;18.70;99.90
59855;DHT22;45732;52.850;6.896;2023-09-18T07:34:08;18.70;99.90
59855;DHT22;45732;52.850;6.896;2023-09-18T07:36:34;18.70;99.90
59855;DHT22;45732;52.850;6.896;2023-09-18T07:38:59;18.70;99.90
59855;DHT22;45732;52.850;6.896;2023-09-18T07:41:25;18.80;99.90
59855;DHT22;45732;52.850;6.896;2023-09-18T07:43:51;18.70;99.90
59855;DHT22;45732;52.850;6.896;2023-09-18T07:46:17;18.80;99.90
59855;DHT22;45732;52.850;6.896;2023-09-18T07:48:42;18.80;99.90
59855;DHT22;45732;52.850;6.896;2023-09-18T07:51:12;18.80;99.90
59855;DHT22;45732;52.850;6.896;2023-09-18T07:53:39;18.80;99.90
59855;DHT22;45732;52.850;6.896;2023-09-18T07:56:04;18.90;99.90
59855;DHT22;45732;52.850;6.896;2023-09-18T07:58:31;18.80;99.90
59855;DHT22;45732;52.850;6.896;2023-09-18T08:00:59;18.90;99.90
59855;DHT22;45732;52.850;6.896;2023-09-18T08:03:27;18.90;99.90
59855;DHT22;45732;52.850;6.896;2023-09-18T08:05:54;18.90;99.90
59855;DHT22;45732;52.850;6.896;2023-09-18T08:08:21;19.00;99.90
59855;DHT22;45732;52.850;6.896;2023-09-18T08:10:47;19.00;99.90
59855;DHT22;45732;52.850;6.896;2023-09-18T08:13:13;19.00;99.90
59855;DHT22;45732;52.850;6.896;2023-09-18T08:15:39;19.00;99.90
59855;DHT22;45732;52.850;6.896;2023-09-18T08:18:05;19.10;99.90
59855;DHT22;45732;52.850;6.896;2023-09-18T08:20:31;19.10;99.90
59855;DHT22;45732;52.850;6.896;2023-09-18T08:22:58;19.10;99.90
59855;DHT22;45732;52.850;6.896;2023-09-18T08:25:27;19.10;99.90
59855;DHT22;45732;52.850;6.896;2023-09-18T08:27:52;19.10;99.90
59855;DHT22;45732;52.850;6.896;2023-09-18T08:30:18;19.10;99.90
59855;DHT22;45732;52.850;6.896;2023-09-18T08:32:46;19.10;99.90
59855;DHT22;45732;52.850;6.896;2023-09-18T08:35:13;19.10;99.90
59855;DHT22;45732;52.850;6.896;2023-09-18T08:37:40;19.10;99.90
59855;DHT22;45732;52.850;6.896;2023-09-18T08:40:11;19.20;99.90
59855;DHT22;45732;52.850;6.896;2023-09-18T08:42:42;19.20;99.90
59855;DHT22;45732;52.850;6.896;2023-09-18T08:45:10;19.20;99.90
59855;DHT22;45732;52.850;6.896;2023-09-18T08:47:40;19.20;99.90
59855;DHT22;45732;52.850;6.896;2023-09-18T08:50:08;19.20;99.90
59855;DHT22;45732;52.850;6.896;2023-09-18T08:52:36;19.20;99.90
59855;DHT22;45732;52.850;6.896;2023-09-18T08:55:03;19.20;99.90
59855;DHT22;45732;52.850;6.896;2023-09-18T08:57:30;19.20;99.90
59855;DHT22;45732;52.850;6.896;2023-09-18T08:59:56;19.30;99.90
59855;DHT22;45732;52.850;6.896;2023-09-18T09:02:23;19.30;99.90
59855;DHT22;45732;52.850;6.896;2023-09-18T09:04:49;19.30;99.90
59855;DHT22;45732;52.850;6.896;2023-09-18T09:07:15;19.30;99.90
59855;DHT22;45732;52.850;6.896;2023-09-18T09:09:41;19.40;99.90
59855;DHT22;45732;52.850;6.896;2023-09-18T09:12:07;19.40;99.90
59855;DHT22;45732;52.850;6.896;2023-09-18T09:14:33;19.50;99.90
59855;DHT22;45732;52.850;6.896;2023-09-18T09:16:59;19.50;99.90
59855;DHT22;45732;52.850;6.896;2023-09-18T09:19:32;19.50;99.90
59855;DHT22;45732;52.850;6.896;2023-09-18T09:22:01;19.50;99.90
59855;DHT22;45732;52.850;6.896;2023-09-18T09:24:41;19.60;99.90
59855;DHT22;45732;52.850;6.896;2023-09-18T09:27:08;19.60;99.90
59855;DHT22;45732;52.850;6.896;2023-09-18T09:29:34;19.70;99.90
59855;DHT22;45732;52.850;6.896;2023-09-18T09:34:38;19.80;99.90
59855;DHT22;45732;52.850;6.896;2023-09-18T09:37:03;19.80;99.90
59855;DHT22;45732;52.850;6.896;2023-09-18T09:39:29;19.80;99.90
59855;DHT22;45732;52.850;6.896;2023-09-18T09:42:00;19.90;99.90
59855;DHT22;45732;52.850;6.896;2023-09-18T09:44:25;19.90;99.90
59855;DHT22;45732;52.850;6.896;2023-09-18T09:46:51;19.90;99.90
59855;DHT22;45732;52.850;6.896;2023-09-18T09:49:18;19.90;99.90
59855;DHT22;45732;52.850;6.896;2023-09-18T09:51:45;20.00;99.90
59855;DHT22;45732;52.850;6.896;2023-09-18T09:54:12;20.10;99.90
59855;DHT22;45732;52.850;6.896;2023-09-18T09:56:45;20.10;99.90
59855;DHT22;45732;52.850;6.896;2023-09-18T09:59:11;20.20;99.90
59855;DHT22;45732;52.850;6.896;2023-09-18T10:01:38;20.30;99.90
59855;DHT22;45732;52.850;6.896;2023-09-18T10:04:05;20.30;99.90
59855;DHT22;45732;52.850;6.896;2023-09-18T10:06:35;20.40;99.90
59855;DHT22;45732;52.850;6.896;2023-09-18T10:09:06;20.40;99.90
59855;DHT22;45732;52.850;6.896;2023-09-18T10:11:34;20.40;99.90
59855;DHT22;45732;52.850;6.896;2023-09-18T10:14:30;20.40;99.90
59855;DHT22;45732;52.850;6.896;2023-09-18T10:16:59;20.40;99.90
59855;DHT22;45732;52.850;6.896;2023-09-18T10:19:42;20.40;99.90
59855;DHT22;45732;52.850;6.896;2023-09-18T10:22:23;20.40;99.90
59855;DHT22;45732;52.850;6.896;2023-09-18T10:24:54;20.40;99.90
59855;DHT22;45732;52.850;6.896;2023-09-18T10:27:20;20.50;99.90
59855;DHT22;45732;52.850;6.896;2023-09-18T10:29:49;20.50;99.90
59855;DHT22;45732;52.850;6.896;2023-09-18T10:32:17;20.60;99.90
59855;DHT22;45732;52.850;6.896;2023-09-18T10:34:46;20.60;99.90
59855;DHT22;45732;52.850;6.896;2023-09-18T10:37:15;20.60;99.90
59855;DHT22;45732;52.850;6.896;2023-09-18T10:39:41;20.60;99.90
59855;DHT22;45732;52.850;6.896;2023-09-18T10:42:09;20.70;99.90
59855;DHT22;45732;52.850;6.896;2023-09-18T10:44:35;20.70;99.90
59855;DHT22;45732;52.850;6.896;2023-09-18T10:47:03;20.80;99.90
59855;DHT22;45732;52.850;6.896;2023-09-18T10:49:34;20.80;99.90
59855;DHT22;45732;52.850;6.896;2023-09-18T10:52:00;20.80;99.90
59855;DHT22;45732;52.850;6.896;2023-09-18T10:54:27;20.80;99.90
59855;DHT22;45732;52.850;6.896;2023-09-18T10:56:55;20.80;99.90
59855;DHT22;45732;52.850;6.896;2023-09-18T10:59:21;20.90;99.90
59855;DHT22;45732;52.850;6.896;2023-09-18T11:01:48;20.90;99.90
59855;DHT22;45732;52.850;6.896;2023-09-18T11:04:18;20.90;99.90
59855;DHT22;45732;52.850;6.896;2023-09-18T11:09:23;21.00;99.90
59855;DHT22;45732;52.850;6.896;2023-09-18T11:17:35;21.10;99.90
59855;DHT22;45732;52.850;6.896;2023-09-18T11:25:42;21.40;99.90
59855;DHT22;45732;52.850;6.896;2023-09-18T11:28:24;21.40;99.90
59855;DHT22;45732;52.850;6.896;2023-09-18T11:30:54;21.50;99.90
59855;DHT22;45732;52.850;6.896;2023-09-18T11:33:35;21.40;99.90
59855;DHT22;45732;52.850;6.896;2023-09-18T11:36:28;21.40;99.90
59855;DHT22;45732;52.850;6.896;2023-09-18T11:38:57;21.30;99.90
59855;DHT22;45732;52.850;6.896;2023-09-18T11:41:25;21.30;99.90
59855;DHT22;45732;52.850;6.896;2023-09-18T11:43:51;21.40;99.90
59855;DHT22;45732;52.850;6.896;2023-09-18T11:46:21;21.50;99.90
59855;DHT22;45732;52.850;6.896;2023-09-18T11:48:47;21.60;99.90
59855;DHT22;45732;52.850;6.896;2023-09-18T11:51:21;21.60;99.90
59855;DHT22;45732;52.850;6.896;2023-09-18T11:53:47;21.60;99.90
59855;DHT22;45732;52.850;6.896;2023-09-18T11:56:15;21.60;99.90
59855;DHT22;45732;52.850;6.896;2023-09-18T11:58:45;21.50;99.90
59855;DHT22;45732;52.850;6.896;2023-09-18T12:01:12;21.50;99.90
59855;DHT22;45732;52.850;6.896;2023-09-18T12:03:38;21.60;99.90
59855;DHT22;45732;52.850;6.896;2023-09-18T12:06:04;21.60;99.90
59855;DHT22;45732;52.850;6.896;2023-09-18T12:08:31;21.60;99.90
59855;DHT22;45732;52.850;6.896;2023-09-18T12:10:58;21.70;99.90
59855;DHT22;45732;52.850;6.896;2023-09-18T12:13:27;21.70;99.90
59855;DHT22;45732;52.850;6.896;2023-09-18T12:15:59;21.80;99.90
59855;DHT22;45732;52.850;6.896;2023-09-18T12:18:25;21.90;99.90
59855;DHT22;45732;52.850;6.896;2023-09-18T12:20:54;21.90;99.90
59855;DHT22;45732;52.850;6.896;2023-09-18T12:23:21;21.80;99.90
59855;DHT22;45732;52.850;6.896;2023-09-18T12:25:50;21.70;99.90
59855;DHT22;45732;52.850;6.896;2023-09-18T12:28:17;21.70;99.90
59855;DHT22;45732;52.850;6.896;2023-09-18T12:30:44;21.60;99.90
59855;DHT22;45732;52.850;6.896;2023-09-18T12:33:12;21.50;99.90
59855;DHT22;45732;52.850;6.896;2023-09-18T12:35:40;21.50;99.90
59855;DHT22;45732;52.850;6.896;2023-09-18T12:38:17;21.50;99.90
59855;DHT22;45732;52.850;6.896;2023-09-18T12:40:45;21.40;99.90
59855;DHT22;45732;52.850;6.896;2023-09-18T12:43:12;21.40;99.90
59855;DHT22;45732;52.850;6.896;2023-09-18T12:45:41;21.30;99.90
59855;DHT22;45732;52.850;6.896;2023-09-18T12:48:08;21.20;99.90
59855;DHT22;45732;52.850;6.896;2023-09-18T12:50:34;21.10;99.90
59855;DHT22;45732;52.850;6.896;2023-09-18T12:53:29;21.00;99.90
59855;DHT22;45732;52.850;6.896;2023-09-18T12:56:11;21.00;99.90
59855;DHT22;45732;52.850;6.896;2023-09-18T12:58:39;20.90;99.90
59855;DHT22;45732;52.850;6.896;2023-09-18T13:01:09;20.90;99.90
59855;DHT22;45732;52.850;6.896;2023-09-18T13:03:42;20.80;99.90
59855;DHT22;45732;52.850;6.896;2023-09-18T13:06:16;20.70;99.90
59855;DHT22;45732;52.850;6.896;2023-09-18T13:08:43;20.60;99.90
59855;DHT22;45732;52.850;6.896;2023-09-18T13:11:09;20.50;99.90
59855;DHT22;45732;52.850;6.896;2023-09-18T13:13:36;20.60;99.90
59855;DHT22;45732;52.850;6.896;2023-09-18T13:16:05;20.60;99.90
59855;DHT22;45732;52.850;6.896;2023-09-18T13:18:31;20.70;99.90
59855;DHT22;45732;52.850;6.896;2023-09-18T13:20:58;20.80;99.90
59855;DHT22;45732;52.850;6.896;2023-09-18T13:23:31;20.90;99.90
59855;DHT22;45732;52.850;6.896;2023-09-18T13:26:01;21.00;99.90
59855;DHT22;45732;52.850;6.896;2023-09-18T13:28:28;21.10;99.90
59855;DHT22;45732;52.850;6.896;2023-09-18T13:30:56;21.10;99.90
59855;DHT22;45732;52.850;6.896;2023-09-18T13:33:22;21.30;99.90
59855;DHT22;45732;52.850;6.896;2023-09-18T13:35:49;21.40;99.90
59855;DHT22;45732;52.850;6.896;2023-09-18T13:38:14;21.50;99.90
59855;DHT22;45732;52.850;6.896;2023-09-18T13:40:45;21.50;99.90
59855;DHT22;45732;52.850;6.896;2023-09-18T13:43:11;21.60;99.90
59855;DHT22;45732;52.850;6.896;2023-09-18T13:45:38;21.60;99.90
59855;DHT22;45732;52.850;6.896;2023-09-18T13:48:05;21.70;99.90
59855;DHT22;45732;52.850;6.896;2023-09-18T13:50:32;21.70;99.90
59855;DHT22;45732;52.850;6.896;2023-09-18T13:52:58;21.70;99.90
59855;DHT22;45732;52.850;6.896;2023-09-18T13:55:25;21.80;99.90
59855;DHT22;45732;52.850;6.896;2023-09-18T13:57:50;21.80;99.90
59855;DHT22;45732;52.850;6.896;2023-09-18T14:00:17;21.80;99.90
59855;DHT22;45732;52.850;6.896;2023-09-18T14:02:43;21.80;99.90
59855;DHT22;45732;52.850;6.896;2023-09-18T14:05:09;21.80;99.90
59855;DHT22;45732;52.850;6.896;2023-09-18T14:07:39;21.90;99.90
59855;DHT22;45732;52.850;6.896;2023-09-18T14:10:07;21.90;99.90
59855;DHT22;45732;52.850;6.896;2023-09-18T14:12:33;21.90;99.90
59855;DHT22;45732;52.850;6.896;2023-09-18T14:14:58;22.00;99.90
59855;DHT22;45732;52.850;6.896;2023-09-18T14:17:25;22.00;99.90
59855;DHT22;45732;52.850;6.896;2023-09-18T14:19:51;22.00;99.90
59855;DHT22;45732;52.850;6.896;2023-09-18T14:22:19;21.90;99.90
59855;DHT22;45732;52.850;6.896;2023-09-18T14:24:45;21.90;99.90
59855;DHT22;45732;52.850;6.896;2023-09-18T14:27:11;21.90;99.90
59855;DHT22;45732;52.850;6.896;2023-09-18T14:29:38;21.90;99.90
59855;DHT22;45732;52.850;6.896;2023-09-18T14:32:04;21.90;99.90
59855;DHT22;45732;52.850;6.896;2023-09-18T14:34:31;22.00;99.90
59855;DHT22;45732;52.850;6.896;2023-09-18T14:36:57;22.00;99.90
59855;DHT22;45732;52.850;6.896;2023-09-18T14:39:22;22.00;99.90
59855;DHT22;45732;52.850;6.896;2023-09-18T14:41:48;22.00;99.90
59855;DHT22;45732;52.850;6.896;2023-09-18T14:44:15;22.00;99.90
59855;DHT22;45732;52.850;6.896;2023-09-18T14:46:40;22.00;99.90
59855;DHT22;45732;52.850;6.896;2023-09-18T14:49:06;22.00;99.90
59855;DHT22;45732;52.850;6.896;2023-09-18T14:51:35;22.00;99.90
59855;DHT22;45732;52.850;6.896;2023-09-18T14:54:01;22.10;99.90
59855;DHT22;45732;52.850;6.896;2023-09-18T14:56:30;22.10;99.90
59855;DHT22;45732;52.850;6.896;2023-09-18T14:58:55;22.20;99.90
59855;DHT22;45732;52.850;6.896;2023-09-18T15:01:22;22.30;99.90
59855;DHT22;45732;52.850;6.896;2023-09-18T15:03:48;22.40;99.90
59855;DHT22;45732;52.850;6.896;2023-09-18T15:06:14;22.40;99.90
59855;DHT22;45732;52.850;6.896;2023-09-18T15:08:40;22.40;99.90
59855;DHT22;45732;52.850;6.896;2023-09-18T15:11:06;22.30;99.90
59855;DHT22;45732;52.850;6.896;2023-09-18T15:13:32;22.30;99.90
59855;DHT22;45732;52.850;6.896;2023-09-18T15:16:00;22.10;99.90
59855;DHT22;45732;52.850;6.896;2023-09-18T15:18:26;22.10;99.90
59855;DHT22;45732;52.850;6.896;2023-09-18T15:20:52;22.20;99.90
59855;DHT22;45732;52.850;6.896;2023-09-18T15:23:26;22.30;99.90
59855;DHT22;45732;52.850;6.896;2023-09-18T15:25:52;22.50;99.90
59855;DHT22;45732;52.850;6.896;2023-09-18T15:28:21;22.60;99.90
59855;DHT22;45732;52.850;6.896;2023-09-18T15:30:50;22.70;99.90
59855;DHT22;45732;52.850;6.896;2023-09-18T15:33:15;22.80;99.90
59855;DHT22;45732;52.850;6.896;2023-09-18T15:35:43;23.00;99.90
59855;DHT22;45732;52.850;6.896;2023-09-18T15:38:09;23.10;99.90
59855;DHT22;45732;52.850;6.896;2023-09-18T15:40:35;23.10;99.90
59855;DHT22;45732;52.850;6.896;2023-09-18T15:43:01;23.10;99.90
59855;DHT22;45732;52.850;6.896;2023-09-18T15:45:27;23.10;99.90
59855;DHT22;45732;52.850;6.896;2023-09-18T15:47:52;23.00;99.90